Weather at Kuwait International Airport

Public forecast

Using degrees Celsius for public forecast. Weather courtesy of forecast.io.

Closest aviation weather report (METAR) to Kuwait International Airport

Closest report is Ali Al Salem Air Base, 25.0 nm (46.3 km) WNW.

2024/05/19 07:19 (retrieved 33 minutes ago)

OKAS 190719Z 33014G20KT 9999 FEW330 37/07 A2982 RMK SLP093

Closest aviation forecast (TAF) to Kuwait International Airport

Closest forecast is Abadan Airport, 69.9 nm (129.4 km) N.

2024/05/19 06:15 (retrieved 2 hours ago)

TAF TAF OIAA 190510Z 1906/2012 32007KT 7000 NSC TEMPO 1906/1917 32019KT